FW1036 Weather Reports


Display with metric or nautical units.
time (UTC)temp
F
wind
direction
speed
MPH
gust
MPH
rain 1hr
in
rain 24hr
in
rain mn
in
humidity
%
barometer
mb
20220705073030 69 173 2.0 5.0 0.03 0.03 0.03 81 1010.4
20220705071533 70 175 1.0 8.0 0.01 0.01 0.01 79 1010.4
20220705070028 72 231 3.0 9.0 0.00 0.00 0.00 76 1010.8
20220705064519 74 183 3.0 10.0 0.00 0.00 0.00 68 1011.0
20220705063020 75 202 2.0 12.0 0.00 0.00 0.00 64 1011.4
20220705061515 75 184 4.0 11.0 0.00 0.00 0.00 64 1011.5
20220705060013 75 168 6.0 10.0 0.00 0.00 0.00 63 1011.7
20220705054510 75 217 4.0 11.0 0.00 0.00 0.00 62 1012.2
20220705053009 75 146 8.0 13.0 0.00 0.00 0.00 61 1012.2
20220705051508 76 186 5.0 12.0 0.00 0.00 0.00 61 1012.6
20220705050010 75 174 7.0 12.0 0.00 0.00 0.00 61 1012.4
20220705044502 75 164 4.0 10.0 0.00 0.00 0.00 61 1012.9
20220705043101 75 188 5.0 12.0 0.00 0.00 0.00 62 1012.9
20220705041559 75 232 6.0 11.0 0.00 0.00 0.00 62 1012.9
20220705040056 75 185 4.0 12.0 0.00 0.00 0.00 62 1013.0
20220705034554 75 167 4.0 11.0 0.00 0.00 0.00 62 1013.1
20220705033102 75 171 5.0 9.0 0.00 0.00 0.00 63 1013.3
20220705031558 75 188 4.0 10.0 0.00 0.00 0.00 65 1013.5
20220705030051 74 181 4.0 7.0 0.00 0.00 0.00 66 1013.9
20220705024554 73 164 2.0 5.0 0.00 0.00 0.00 68 1014.1
20220705023055 72 140 1.0 3.0 0.00 0.00 0.00 71 1014.4
20220705021545 72 140 1.0 4.0 0.00 0.00 0.00 72 1014.5
20220705020044 71 137 2.0 4.0 0.00 0.00 0.00 72 1014.5
20220705014549 72 137 1.0 4.0 0.00 0.00 0.00 71 1014.6
20220705013043 72 123 2.0 6.0 0.00 0.00 0.00 69 1014.5
20220705011644 72 126 2.0 6.0 0.00 0.00 0.00 68 1014.5
20220705010041 73 121 3.0 7.0 0.00 0.00 0.00 67 1014.6
20220705004549 73 120 4.0 8.0 0.00 0.00 0.00 66 1014.7
20220705003038 73 113 5.0 8.0 0.00 0.00 0.00 65 1015.0
20220705001544 73 94 4.0 9.0 0.00 0.00 0.00 66 1015.0
20220705000035 73 93 6.0 9.0 0.00 0.00 0.00 65 1015.1
20220704234537 74 115 5.0 8.0 0.00 0.00 0.00 65 1015.3
20220704233034 74 100 6.0 8.0 0.00 0.00 0.00 65 1015.3
20220704231533 75 93 6.0 8.0 0.00 0.00 0.00 64 1015.4
20220704230033 75 92 5.0 9.0 0.00 0.00 0.00 63 1015.4
20220704224529 76 96 5.0 9.0 0.00 0.00 0.00 61 1015.5
20220704223028 77 107 5.0 9.0 0.00 0.00 0.00 60 1015.7
20220704221527 77 93 5.0 10.0 0.00 0.00 0.00 61 1015.6
20220704220031 78 92 6.0 10.0 0.00 0.00 0.00 61 1015.6
20220704214525 78 90 6.0 10.0 0.00 0.00 0.00 61 1015.7
20220704213026 78 105 7.0 10.0 0.00 0.00 0.00 59 1015.6
20220704211524 79 88 6.0 13.0 0.00 0.00 0.00 59 1015.8
20220704210024 80 86 6.0 13.0 0.00 0.00 0.00 58 1015.8
20220704204523 81 96 9.0 13.0 0.00 0.00 0.00 56 1016.0
20220704203022 82 100 8.0 12.0 0.00 0.00 0.00 56 1016.0
20220704201522 80 102 8.0 14.0 0.00 0.00 0.00 57 1016.1
20220704200019 81 90 7.0 11.0 0.00 0.00 0.00 60 1016.4
20220704194519 80 87 6.0 12.0 0.00 0.00 0.00 62 1016.7
20220704193017 79 95 7.0 13.0 0.00 0.00 0.00 62 1016.9
20220704191516 80 68 7.0 12.0 0.00 0.00 0.00 61 1017.1
20220704190012 84 26 2.0 4.0 0.00 0.00 0.00 52 1017.3
20220704184513 83 295 3.0 8.0 0.00 0.00 0.00 49 1017.4
20220704183009 83 259 0.0 4.0 0.00 0.00 0.00 50 1017.5
20220704181509 84 198 1.0 4.0 0.00 0.00 0.00 48 1017.8
20220704180013 84 200 2.0 6.0 0.00 0.00 0.00 46 1017.8
20220704174505 85 222 2.0 5.0 0.00 0.00 0.00 46 1017.9
20220704173003 85 284 3.0 11.0 0.00 0.00 0.00 48 1018.1
20220704171502 85 243 2.0 7.0 0.00 0.00 0.00 46 1018.0
20220704170108 84 211 2.0 6.0 0.00 0.00 0.00 48 1018.1
20220704164556 83 219 1.0 7.0 0.00 0.00 0.00 49 1018.3
20220704163110 82 165 2.0 8.0 0.00 0.00 0.00 55 1018.5
20220704161549 80 277 2.0 5.0 0.00 0.00 0.00 54 1018.6
20220704160047 80 219 0.0 3.0 0.00 0.00 0.00 56 1018.7
20220704154546 78 261 0.0 4.0 0.00 0.00 0.00 56 1018.6
20220704153046 77 240 1.0 4.0 0.00 0.00 0.00 57 1018.7
20220704151545 78 255 0.0 7.0 0.00 0.00 0.00 57 1018.7
20220704150044 79 232 1.0 6.0 0.00 0.00 0.00 54 1018.7
20220704144542 78 213 1.0 5.0 0.00 0.00 0.00 56 1018.7
20220704143038 77 161 3.0 6.0 0.00 0.00 0.00 59 1018.7
20220704141535 76 147 2.0 4.0 0.00 0.00 0.00 61 1019.0
20220704140044 75 130 2.0 4.0 0.00 0.00 0.00 63 1019.2
20220704134551 75 158 3.0 4.0 0.00 0.00 0.00 63 1019.2
20220704133038 74 138 2.0 3.0 0.00 0.00 0.00 64 1019.3
20220704131524 72 157 2.0 4.0 0.00 0.00 0.00 67 1019.2
20220704130023 72 159 1.0 4.0 0.00 0.00 0.00 67 1019.2
20220704124517 71 132 2.0 4.0 0.00 0.00 0.00 69 1019.1
20220704123014 70 155 2.0 4.0 0.00 0.00 0.00 70 1019.1
20220704121510 69 198 3.0 6.0 0.00 0.00 0.00 72 1019.2
20220704120007 68 165 2.0 5.0 0.00 0.00 0.00 75 1019.3
20220704114501 66 161 2.0 6.0 0.00 0.00 0.00 77 1019.4
20220704113058 65 154 1.0 3.0 0.00 0.00 0.00 80 1019.5
20220704111555 63 145 1.0 4.0 0.00 0.00 0.00 83 1019.4
20220704110049 62 162 2.0 4.0 0.00 0.00 0.00 85 1019.4
20220704104544 62 142 2.0 3.0 0.00 0.00 0.00 85 1019.7
20220704103046 61 55 0.0 2.0 0.00 0.00 0.00 86 1019.7
20220704101540 60 55 0.0 1.0 0.00 0.00 0.00 86 1019.5
20220704100041 59 55 1.0 2.0 0.00 0.00 0.00 88 1019.5
20220704094538 59 55 1.0 3.0 0.00 0.00 0.00 87 1019.6
20220704093038 59 55 1.0 3.0 0.00 0.00 0.00 86 1019.3
20220704091536 60 55 2.0 3.0 0.00 0.00 0.00 87 1019.5
20220704090036 59 32 0.0 3.0 0.00 0.00 0.00 87 1019.4
20220704084545 59 32 3.0 4.0 0.00 0.00 0.00 86 1019.5
20220704083037 60 80 0.0 3.0 0.00 0.00 0.00 85 1019.3
20220704081551 60 80 0.0 2.0 0.00 0.00 0.00 85 1019.2
20220704080034 61 80 2.0 5.0 0.00 0.00 0.00 84 1019.0
20220704074535 60 58 3.0 4.0 0.00 0.00 0.00 84 1019.1